sensor_id;sensor_type;location;lat;lon;timestamp;P1;durP1;ratioP1;P2;durP2;ratioP2
41514;SDS011;27247;48.020;16.720;2022-11-20T00:03:53;46.20;;;21.58;;
41514;SDS011;27247;48.020;16.720;2022-11-20T00:08:06;71.20;;;29.52;;
41514;SDS011;27247;48.020;16.720;2022-11-20T00:12:16;65.82;;;27.98;;
41514;SDS011;27247;48.020;16.720;2022-11-20T00:16:27;73.53;;;30.40;;
41514;SDS011;27247;48.020;16.720;2022-11-20T00:20:40;52.53;;;23.23;;
41514;SDS011;27247;48.020;16.720;2022-11-20T00:24:50;54.83;;;24.67;;
41514;SDS011;27247;48.020;16.720;2022-11-20T00:29:00;53.70;;;23.95;;
41514;SDS011;27247;48.020;16.720;2022-11-20T00:33:11;50.92;;;23.55;;
41514;SDS011;27247;48.020;16.720;2022-11-20T00:37:21;50.95;;;22.48;;
41514;SDS011;27247;48.020;16.720;2022-11-20T00:41:32;49.78;;;22.38;;
41514;SDS011;27247;48.020;16.720;2022-11-20T00:45:42;48.53;;;21.42;;
41514;SDS011;27247;48.020;16.720;2022-11-20T00:49:52;55.43;;;21.67;;
41514;SDS011;27247;48.020;16.720;2022-11-20T00:54:03;55.87;;;23.33;;
41514;SDS011;27247;48.020;16.720;2022-11-20T00:58:13;55.55;;;24.58;;
41514;SDS011;27247;48.020;16.720;2022-11-20T01:02:23;55.75;;;24.25;;
41514;SDS011;27247;48.020;16.720;2022-11-20T01:06:35;54.13;;;23.25;;
41514;SDS011;27247;48.020;16.720;2022-11-20T01:10:47;55.53;;;23.48;;
41514;SDS011;27247;48.020;16.720;2022-11-20T01:14:57;56.47;;;24.80;;
41514;SDS011;27247;48.020;16.720;2022-11-20T01:19:12;53.75;;;23.35;;
41514;SDS011;27247;48.020;16.720;2022-11-20T01:23:24;60.20;;;24.77;;
41514;SDS011;27247;48.020;16.720;2022-11-20T01:27:35;51.83;;;23.50;;
41514;SDS011;27247;48.020;16.720;2022-11-20T01:31:45;51.40;;;23.88;;
41514;SDS011;27247;48.020;16.720;2022-11-20T01:36:02;57.13;;;23.23;;
41514;SDS011;27247;48.020;16.720;2022-11-20T01:40:14;54.97;;;23.70;;
41514;SDS011;27247;48.020;16.720;2022-11-20T01:49:02;50.55;;;23.17;;
41514;SDS011;27247;48.020;16.720;2022-11-20T01:53:16;55.72;;;24.45;;
41514;SDS011;27247;48.020;16.720;2022-11-20T01:57:31;59.65;;;24.80;;
41514;SDS011;27247;48.020;16.720;2022-11-20T02:01:44;49.55;;;23.10;;
41514;SDS011;27247;48.020;16.720;2022-11-20T02:06:00;52.75;;;23.10;;
41514;SDS011;27247;48.020;16.720;2022-11-20T02:10:13;55.75;;;24.95;;
41514;SDS011;27247;48.020;16.720;2022-11-20T02:14:24;49.00;;;22.40;;
41514;SDS011;27247;48.020;16.720;2022-11-20T02:18:35;52.88;;;24.70;;
41514;SDS011;27247;48.020;16.720;2022-11-20T02:22:57;50.00;;;23.13;;
41514;SDS011;27247;48.020;16.720;2022-11-20T02:27:14;50.28;;;22.98;;
41514;SDS011;27247;48.020;16.720;2022-11-20T02:31:26;55.80;;;22.45;;
41514;SDS011;27247;48.020;16.720;2022-11-20T02:35:39;57.05;;;24.08;;
41514;SDS011;27247;48.020;16.720;2022-11-20T02:39:51;53.78;;;24.13;;
41514;SDS011;27247;48.020;16.720;2022-11-20T02:44:02;55.05;;;25.83;;
41514;SDS011;27247;48.020;16.720;2022-11-20T02:48:14;62.28;;;24.55;;
41514;SDS011;27247;48.020;16.720;2022-11-20T02:52:24;50.30;;;23.42;;
41514;SDS011;27247;48.020;16.720;2022-11-20T02:56:37;64.65;;;26.60;;
41514;SDS011;27247;48.020;16.720;2022-11-20T03:00:48;56.97;;;22.88;;
41514;SDS011;27247;48.020;16.720;2022-11-20T03:04:58;70.43;;;32.27;;
41514;SDS011;27247;48.020;16.720;2022-11-20T03:09:09;57.63;;;26.15;;
41514;SDS011;27247;48.020;16.720;2022-11-20T03:17:39;59.58;;;26.80;;
41514;SDS011;27247;48.020;16.720;2022-11-20T03:21:49;54.00;;;23.35;;
41514;SDS011;27247;48.020;16.720;2022-11-20T03:26:10;61.10;;;26.90;;
41514;SDS011;27247;48.020;16.720;2022-11-20T09:31:21;59.65;;;27.58;;
41514;SDS011;27247;48.020;16.720;2022-11-20T09:35:33;58.30;;;27.13;;
41514;SDS011;27247;48.020;16.720;2022-11-20T09:39:43;60.58;;;27.73;;
41514;SDS011;27247;48.020;16.720;2022-11-20T09:48:26;66.18;;;27.75;;
41514;SDS011;27247;48.020;16.720;2022-11-20T09:53:10;56.78;;;26.90;;
41514;SDS011;27247;48.020;16.720;2022-11-20T09:57:26;62.83;;;27.55;;
41514;SDS011;27247;48.020;16.720;2022-11-20T10:01:44;58.95;;;26.27;;
41514;SDS011;27247;48.020;16.720;2022-11-20T10:05:55;64.38;;;28.90;;
41514;SDS011;27247;48.020;16.720;2022-11-20T10:10:43;61.47;;;27.63;;
41514;SDS011;27247;48.020;16.720;2022-11-20T10:28:20;58.63;;;26.95;;
41514;SDS011;27247;48.020;16.720;2022-11-20T10:32:42;60.83;;;26.95;;
41514;SDS011;27247;48.020;16.720;2022-11-20T10:36:59;58.78;;;27.45;;
41514;SDS011;27247;48.020;16.720;2022-11-20T10:41:27;60.03;;;27.95;;
41514;SDS011;27247;48.020;16.720;2022-11-20T10:45:48;63.25;;;29.45;;
41514;SDS011;27247;48.020;16.720;2022-11-20T10:50:04;59.58;;;27.50;;
41514;SDS011;27247;48.020;16.720;2022-11-20T11:03:20;61.63;;;27.98;;
41514;SDS011;27247;48.020;16.720;2022-11-20T11:07:35;58.03;;;27.40;;
41514;SDS011;27247;48.020;16.720;2022-11-20T11:11:48;66.70;;;29.40;;
41514;SDS011;27247;48.020;16.720;2022-11-20T11:15:59;65.05;;;29.67;;
41514;SDS011;27247;48.020;16.720;2022-11-20T11:20:19;65.47;;;29.98;;
41514;SDS011;27247;48.020;16.720;2022-11-20T11:24:31;69.97;;;31.85;;
41514;SDS011;27247;48.020;16.720;2022-11-20T11:28:41;68.13;;;30.42;;
41514;SDS011;27247;48.020;16.720;2022-11-20T11:33:10;71.63;;;32.17;;
41514;SDS011;27247;48.020;16.720;2022-11-20T11:37:22;73.80;;;31.58;;
41514;SDS011;27247;48.020;16.720;2022-11-20T11:41:32;62.92;;;29.73;;
41514;SDS011;27247;48.020;16.720;2022-11-20T11:45:55;58.50;;;27.83;;
41514;SDS011;27247;48.020;16.720;2022-11-20T11:54:23;62.95;;;30.10;;
41514;SDS011;27247;48.020;16.720;2022-11-20T11:58:43;63.75;;;30.90;;
41514;SDS011;27247;48.020;16.720;2022-11-20T12:03:09;64.03;;;29.58;;
41514;SDS011;27247;48.020;16.720;2022-11-20T12:07:38;71.07;;;29.88;;
41514;SDS011;27247;48.020;16.720;2022-11-20T12:11:54;60.35;;;28.75;;
41514;SDS011;27247;48.020;16.720;2022-11-20T12:16:10;67.28;;;30.60;;
41514;SDS011;27247;48.020;16.720;2022-11-20T12:20:25;59.58;;;27.90;;
41514;SDS011;27247;48.020;16.720;2022-11-20T12:56:47;63.13;;;28.05;;
41514;SDS011;27247;48.020;16.720;2022-11-20T13:10:04;55.13;;;26.45;;
41514;SDS011;27247;48.020;16.720;2022-11-20T13:14:26;53.88;;;27.55;;
41514;SDS011;27247;48.020;16.720;2022-11-20T13:18:49;51.17;;;26.48;;
41514;SDS011;27247;48.020;16.720;2022-11-20T13:22:59;52.97;;;25.52;;
41514;SDS011;27247;48.020;16.720;2022-11-20T13:31:25;50.90;;;26.25;;
41514;SDS011;27247;48.020;16.720;2022-11-20T13:35:41;47.88;;;26.10;;
41514;SDS011;27247;48.020;16.720;2022-11-20T13:40:04;51.83;;;26.63;;
41514;SDS011;27247;48.020;16.720;2022-11-20T13:44:35;49.58;;;25.70;;
41514;SDS011;27247;48.020;16.720;2022-11-20T13:48:47;54.58;;;27.38;;
41514;SDS011;27247;48.020;16.720;2022-11-20T13:53:00;45.28;;;24.85;;
41514;SDS011;27247;48.020;16.720;2022-11-20T13:57:30;54.67;;;27.63;;
41514;SDS011;27247;48.020;16.720;2022-11-20T14:01:45;48.58;;;25.42;;
41514;SDS011;27247;48.020;16.720;2022-11-20T14:05:58;49.42;;;25.48;;
41514;SDS011;27247;48.020;16.720;2022-11-20T14:10:20;51.53;;;28.13;;
41514;SDS011;27247;48.020;16.720;2022-11-20T14:14:35;50.97;;;26.92;;
41514;SDS011;27247;48.020;16.720;2022-11-20T14:18:57;49.78;;;25.10;;
41514;SDS011;27247;48.020;16.720;2022-11-20T14:23:28;58.13;;;28.50;;
41514;SDS011;27247;48.020;16.720;2022-11-20T14:27:50;65.53;;;30.70;;
41514;SDS011;27247;48.020;16.720;2022-11-20T14:32:06;58.80;;;27.23;;
41514;SDS011;27247;48.020;16.720;2022-11-20T14:36:19;54.00;;;25.65;;
41514;SDS011;27247;48.020;16.720;2022-11-20T14:40:35;51.80;;;25.95;;
41514;SDS011;27247;48.020;16.720;2022-11-20T14:44:47;50.13;;;24.90;;
41514;SDS011;27247;48.020;16.720;2022-11-20T14:49:00;51.78;;;25.55;;
41514;SDS011;27247;48.020;16.720;2022-11-20T14:53:13;59.70;;;28.08;;
41514;SDS011;27247;48.020;16.720;2022-11-20T14:57:34;54.95;;;27.77;;
41514;SDS011;27247;48.020;16.720;2022-11-20T15:01:54;52.55;;;24.45;;
41514;SDS011;27247;48.020;16.720;2022-11-20T15:06:10;57.60;;;27.35;;
41514;SDS011;27247;48.020;16.720;2022-11-20T15:10:23;53.40;;;24.58;;
41514;SDS011;27247;48.020;16.720;2022-11-20T15:14:35;52.38;;;25.42;;
41514;SDS011;27247;48.020;16.720;2022-11-20T15:18:46;52.33;;;24.83;;
41514;SDS011;27247;48.020;16.720;2022-11-20T15:22:57;53.85;;;26.10;;
41514;SDS011;27247;48.020;16.720;2022-11-20T15:27:09;53.83;;;25.52;;
41514;SDS011;27247;48.020;16.720;2022-11-20T15:31:21;58.05;;;28.33;;
41514;SDS011;27247;48.020;16.720;2022-11-20T15:35:33;52.88;;;24.60;;
41514;SDS011;27247;48.020;16.720;2022-11-20T15:39:44;65.03;;;28.52;;
41514;SDS011;27247;48.020;16.720;2022-11-20T15:43:54;62.83;;;27.20;;
41514;SDS011;27247;48.020;16.720;2022-11-20T15:48:09;62.20;;;26.67;;
41514;SDS011;27247;48.020;16.720;2022-11-20T15:52:25;64.22;;;29.50;;
41514;SDS011;27247;48.020;16.720;2022-11-20T15:56:36;64.63;;;27.55;;
41514;SDS011;27247;48.020;16.720;2022-11-20T16:00:47;62.17;;;27.67;;
41514;SDS011;27247;48.020;16.720;2022-11-20T16:04:58;62.47;;;28.05;;
41514;SDS011;27247;48.020;16.720;2022-11-20T16:09:09;62.03;;;27.55;;
41514;SDS011;27247;48.020;16.720;2022-11-20T16:13:20;64.07;;;27.52;;
41514;SDS011;27247;48.020;16.720;2022-11-20T16:21:59;60.58;;;27.77;;
41514;SDS011;27247;48.020;16.720;2022-11-20T16:26:14;64.65;;;28.92;;
41514;SDS011;27247;48.020;16.720;2022-11-20T16:30:35;60.50;;;27.90;;
41514;SDS011;27247;48.020;16.720;2022-11-20T16:34:46;64.85;;;29.05;;
41514;SDS011;27247;48.020;16.720;2022-11-20T16:38:58;76.47;;;31.73;;
41514;SDS011;27247;48.020;16.720;2022-11-20T16:43:11;76.35;;;34.53;;
41514;SDS011;27247;48.020;16.720;2022-11-20T16:47:23;72.85;;;31.17;;
41514;SDS011;27247;48.020;16.720;2022-11-20T16:51:36;78.22;;;34.63;;
41514;SDS011;27247;48.020;16.720;2022-11-20T16:55:48;79.32;;;35.00;;
41514;SDS011;27247;48.020;16.720;2022-11-20T16:59:58;81.55;;;33.13;;
41514;SDS011;27247;48.020;16.720;2022-11-20T17:04:09;71.55;;;30.73;;
41514;SDS011;27247;48.020;16.720;2022-11-20T17:08:20;76.90;;;32.33;;
41514;SDS011;27247;48.020;16.720;2022-11-20T17:12:31;72.70;;;31.23;;
41514;SDS011;27247;48.020;16.720;2022-11-20T17:16:42;80.95;;;33.92;;
41514;SDS011;27247;48.020;16.720;2022-11-20T17:20:53;75.03;;;33.05;;
41514;SDS011;27247;48.020;16.720;2022-11-20T17:25:04;76.40;;;31.98;;
41514;SDS011;27247;48.020;16.720;2022-11-20T17:29:15;71.80;;;31.75;;
41514;SDS011;27247;48.020;16.720;2022-11-20T17:33:27;82.03;;;33.13;;
41514;SDS011;27247;48.020;16.720;2022-11-20T17:37:39;71.97;;;31.67;;
41514;SDS011;27247;48.020;16.720;2022-11-20T17:41:49;80.95;;;33.15;;
41514;SDS011;27247;48.020;16.720;2022-11-20T17:46:21;73.55;;;31.92;;
41514;SDS011;27247;48.020;16.720;2022-11-20T17:50:32;76.22;;;31.83;;
41514;SDS011;27247;48.020;16.720;2022-11-20T17:54:43;77.93;;;32.88;;
41514;SDS011;27247;48.020;16.720;2022-11-20T17:58:54;76.82;;;32.30;;
41514;SDS011;27247;48.020;16.720;2022-11-20T18:03:05;80.50;;;33.17;;
41514;SDS011;27247;48.020;16.720;2022-11-20T18:07:16;80.30;;;33.95;;
41514;SDS011;27247;48.020;16.720;2022-11-20T18:11:28;81.43;;;34.67;;
41514;SDS011;27247;48.020;16.720;2022-11-20T18:15:40;76.10;;;33.53;;
41514;SDS011;27247;48.020;16.720;2022-11-20T18:19:51;82.60;;;34.92;;
41514;SDS011;27247;48.020;16.720;2022-11-20T18:24:02;78.80;;;34.22;;
41514;SDS011;27247;48.020;16.720;2022-11-20T18:28:13;84.22;;;35.08;;
41514;SDS011;27247;48.020;16.720;2022-11-20T18:32:24;79.90;;;32.90;;
41514;SDS011;27247;48.020;16.720;2022-11-20T18:36:35;79.88;;;33.00;;
41514;SDS011;27247;48.020;16.720;2022-11-20T18:40:47;74.78;;;31.90;;
41514;SDS011;27247;48.020;16.720;2022-11-20T18:44:58;80.85;;;33.47;;
41514;SDS011;27247;48.020;16.720;2022-11-20T18:49:09;84.35;;;35.40;;
41514;SDS011;27247;48.020;16.720;2022-11-20T18:53:21;76.43;;;32.53;;
41514;SDS011;27247;48.020;16.720;2022-11-20T18:57:33;76.85;;;34.42;;
41514;SDS011;27247;48.020;16.720;2022-11-20T19:01:46;84.35;;;35.88;;
41514;SDS011;27247;48.020;16.720;2022-11-20T19:05:58;80.85;;;34.38;;
41514;SDS011;27247;48.020;16.720;2022-11-20T19:10:10;76.15;;;32.88;;
41514;SDS011;27247;48.020;16.720;2022-11-20T19:14:21;75.55;;;30.88;;
41514;SDS011;27247;48.020;16.720;2022-11-20T19:18:37;75.63;;;32.80;;
41514;SDS011;27247;48.020;16.720;2022-11-20T19:22:50;75.30;;;33.40;;
41514;SDS011;27247;48.020;16.720;2022-11-20T19:27:02;71.53;;;30.63;;
41514;SDS011;27247;48.020;16.720;2022-11-20T19:31:17;71.07;;;29.27;;
41514;SDS011;27247;48.020;16.720;2022-11-20T19:35:30;71.70;;;28.00;;
41514;SDS011;27247;48.020;16.720;2022-11-20T19:39:40;63.58;;;28.92;;
41514;SDS011;27247;48.020;16.720;2022-11-20T19:43:51;62.45;;;28.35;;
41514;SDS011;27247;48.020;16.720;2022-11-20T19:48:02;65.97;;;29.83;;
41514;SDS011;27247;48.020;16.720;2022-11-20T19:52:13;76.72;;;31.52;;
41514;SDS011;27247;48.020;16.720;2022-11-20T19:56:24;70.57;;;30.20;;
41514;SDS011;27247;48.020;16.720;2022-11-20T20:00:36;74.28;;;30.80;;
41514;SDS011;27247;48.020;16.720;2022-11-20T20:04:46;74.25;;;32.03;;
41514;SDS011;27247;48.020;16.720;2022-11-20T20:08:58;67.03;;;31.00;;
41514;SDS011;27247;48.020;16.720;2022-11-20T20:13:11;68.53;;;28.65;;
41514;SDS011;27247;48.020;16.720;2022-11-20T20:17:21;71.13;;;30.85;;
41514;SDS011;27247;48.020;16.720;2022-11-20T20:21:34;70.78;;;29.38;;
41514;SDS011;27247;48.020;16.720;2022-11-20T20:25:46;67.60;;;29.00;;
41514;SDS011;27247;48.020;16.720;2022-11-20T20:29:57;72.90;;;32.03;;
41514;SDS011;27247;48.020;16.720;2022-11-20T20:34:09;70.63;;;28.88;;
41514;SDS011;27247;48.020;16.720;2022-11-20T20:38:21;73.10;;;30.27;;
41514;SDS011;27247;48.020;16.720;2022-11-20T20:42:32;72.60;;;30.45;;
41514;SDS011;27247;48.020;16.720;2022-11-20T20:46:43;61.30;;;26.73;;
41514;SDS011;27247;48.020;16.720;2022-11-20T20:50:58;60.42;;;27.38;;
41514;SDS011;27247;48.020;16.720;2022-11-20T20:55:12;81.50;;;31.42;;
41514;SDS011;27247;48.020;16.720;2022-11-20T20:59:23;79.22;;;34.10;;
41514;SDS011;27247;48.020;16.720;2022-11-20T21:03:34;74.90;;;30.88;;
41514;SDS011;27247;48.020;16.720;2022-11-20T21:07:45;76.07;;;33.00;;
41514;SDS011;27247;48.020;16.720;2022-11-20T21:12:15;73.72;;;31.10;;
41514;SDS011;27247;48.020;16.720;2022-11-20T21:16:25;75.88;;;31.38;;
41514;SDS011;27247;48.020;16.720;2022-11-20T21:20:38;74.53;;;31.88;;
41514;SDS011;27247;48.020;16.720;2022-11-20T21:25:07;76.18;;;33.33;;
41514;SDS011;27247;48.020;16.720;2022-11-20T21:29:18;80.70;;;35.42;;
41514;SDS011;27247;48.020;16.720;2022-11-20T21:33:39;80.82;;;33.75;;
41514;SDS011;27247;48.020;16.720;2022-11-20T21:37:50;75.10;;;31.63;;
41514;SDS011;27247;48.020;16.720;2022-11-20T21:42:00;69.05;;;31.40;;
41514;SDS011;27247;48.020;16.720;2022-11-20T21:46:14;65.88;;;29.75;;
41514;SDS011;27247;48.020;16.720;2022-11-20T21:50:25;73.57;;;32.53;;
41514;SDS011;27247;48.020;16.720;2022-11-20T21:54:35;81.25;;;34.08;;
41514;SDS011;27247;48.020;16.720;2022-11-20T21:58:46;87.40;;;38.63;;
41514;SDS011;27247;48.020;16.720;2022-11-20T22:02:57;76.88;;;34.42;;
41514;SDS011;27247;48.020;16.720;2022-11-20T22:07:07;74.93;;;31.73;;
41514;SDS011;27247;48.020;16.720;2022-11-20T22:11:18;77.93;;;34.70;;
41514;SDS011;27247;48.020;16.720;2022-11-20T22:15:30;71.05;;;30.58;;
41514;SDS011;27247;48.020;16.720;2022-11-20T22:19:40;79.03;;;33.47;;
41514;SDS011;27247;48.020;16.720;2022-11-20T22:23:51;75.82;;;33.88;;
41514;SDS011;27247;48.020;16.720;2022-11-20T22:28:02;78.75;;;32.97;;
41514;SDS011;27247;48.020;16.720;2022-11-20T22:32:12;80.10;;;34.75;;
41514;SDS011;27247;48.020;16.720;2022-11-20T22:36:23;89.70;;;39.03;;
41514;SDS011;27247;48.020;16.720;2022-11-20T22:40:35;88.97;;;40.13;;
41514;SDS011;27247;48.020;16.720;2022-11-20T22:44:45;86.13;;;38.90;;
41514;SDS011;27247;48.020;16.720;2022-11-20T22:48:56;102.22;;;40.47;;
41514;SDS011;27247;48.020;16.720;2022-11-20T22:53:08;86.55;;;39.05;;
41514;SDS011;27247;48.020;16.720;2022-11-20T22:57:18;89.57;;;39.15;;
41514;SDS011;27247;48.020;16.720;2022-11-20T23:01:30;85.90;;;37.47;;
41514;SDS011;27247;48.020;16.720;2022-11-20T23:05:41;95.70;;;41.22;;
41514;SDS011;27247;48.020;16.720;2022-11-20T23:09:52;85.57;;;37.10;;
41514;SDS011;27247;48.020;16.720;2022-11-20T23:14:06;89.27;;;36.87;;
41514;SDS011;27247;48.020;16.720;2022-11-20T23:18:21;82.50;;;35.20;;
41514;SDS011;27247;48.020;16.720;2022-11-20T23:22:32;82.37;;;35.90;;
41514;SDS011;27247;48.020;16.720;2022-11-20T23:26:43;90.55;;;36.08;;
41514;SDS011;27247;48.020;16.720;2022-11-20T23:30:56;82.28;;;35.95;;
41514;SDS011;27247;48.020;16.720;2022-11-20T23:35:07;81.13;;;35.33;;
41514;SDS011;27247;48.020;16.720;2022-11-20T23:39:17;78.05;;;34.90;;
41514;SDS011;27247;48.020;16.720;2022-11-20T23:43:28;76.47;;;34.00;;
41514;SDS011;27247;48.020;16.720;2022-11-20T23:47:38;79.00;;;36.03;;
41514;SDS011;27247;48.020;16.720;2022-11-20T23:51:49;72.72;;;32.15;;
41514;SDS011;27247;48.020;16.720;2022-11-20T23:56:00;76.57;;;34.77;;
